sensor_id;sensor_type;location;lat;lon;timestamp;P1;durP1;ratioP1;P2;durP2;ratioP2
20480;SDS011;10399;50.754;3.366;2022-10-26T00:01:03;9.07;;;2.47;;
20480;SDS011;10399;50.754;3.366;2022-10-26T00:03:32;8.80;;;2.35;;
20480;SDS011;10399;50.754;3.366;2022-10-26T00:06:10;10.63;;;2.45;;
20480;SDS011;10399;50.754;3.366;2022-10-26T00:08:44;10.57;;;2.20;;
20480;SDS011;10399;50.754;3.366;2022-10-26T00:11:12;5.88;;;2.30;;
20480;SDS011;10399;50.754;3.366;2022-10-26T00:13:40;6.05;;;2.33;;
20480;SDS011;10399;50.754;3.366;2022-10-26T00:16:12;10.80;;;2.58;;
20480;SDS011;10399;50.754;3.366;2022-10-26T00:18:42;6.43;;;2.25;;
20480;SDS011;10399;50.754;3.366;2022-10-26T00:21:09;6.05;;;2.13;;
20480;SDS011;10399;50.754;3.366;2022-10-26T00:23:37;5.47;;;2.30;;
20480;SDS011;10399;50.754;3.366;2022-10-26T00:26:04;5.38;;;2.22;;
20480;SDS011;10399;50.754;3.366;2022-10-26T00:28:32;5.18;;;2.22;;
20480;SDS011;10399;50.754;3.366;2022-10-26T00:31:03;8.07;;;1.92;;
20480;SDS011;10399;50.754;3.366;2022-10-26T00:33:37;7.28;;;1.92;;
20480;SDS011;10399;50.754;3.366;2022-10-26T00:36:04;6.30;;;1.92;;
20480;SDS011;10399;50.754;3.366;2022-10-26T00:38:31;8.48;;;2.35;;
20480;SDS011;10399;50.754;3.366;2022-10-26T00:40:58;4.75;;;1.85;;
20480;SDS011;10399;50.754;3.366;2022-10-26T00:45:52;9.18;;;2.13;;
20480;SDS011;10399;50.754;3.366;2022-10-26T00:48:25;8.73;;;2.60;;
20480;SDS011;10399;50.754;3.366;2022-10-26T00:50:55;12.10;;;2.05;;
20480;SDS011;10399;50.754;3.366;2022-10-26T00:53:25;8.20;;;2.22;;
20480;SDS011;10399;50.754;3.366;2022-10-26T00:55:52;8.13;;;1.83;;
20480;SDS011;10399;50.754;3.366;2022-10-26T00:58:20;6.60;;;2.05;;
20480;SDS011;10399;50.754;3.366;2022-10-26T01:00:48;6.47;;;2.40;;
20480;SDS011;10399;50.754;3.366;2022-10-26T01:03:16;9.50;;;2.58;;
20480;SDS011;10399;50.754;3.366;2022-10-26T01:05:44;7.65;;;1.67;;
20480;SDS011;10399;50.754;3.366;2022-10-26T01:08:13;7.25;;;1.80;;
20480;SDS011;10399;50.754;3.366;2022-10-26T01:10:42;9.07;;;2.30;;
20480;SDS011;10399;50.754;3.366;2022-10-26T01:13:09;5.95;;;1.77;;
20480;SDS011;10399;50.754;3.366;2022-10-26T01:15:47;6.18;;;1.92;;
20480;SDS011;10399;50.754;3.366;2022-10-26T01:31:30;5.35;;;1.75;;
20480;SDS011;10399;50.754;3.366;2022-10-26T01:34:19;4.72;;;1.80;;
20480;SDS011;10399;50.754;3.366;2022-10-26T01:36:59;7.97;;;2.10;;
20480;SDS011;10399;50.754;3.366;2022-10-26T01:39:43;4.20;;;1.95;;
20480;SDS011;10399;50.754;3.366;2022-10-26T01:42:14;6.28;;;1.85;;
20480;SDS011;10399;50.754;3.366;2022-10-26T01:44:55;7.78;;;2.03;;
20480;SDS011;10399;50.754;3.366;2022-10-26T01:47:26;6.25;;;1.67;;
20480;SDS011;10399;50.754;3.366;2022-10-26T01:49:55;7.45;;;1.92;;
20480;SDS011;10399;50.754;3.366;2022-10-26T01:52:24;6.95;;;1.77;;
20480;SDS011;10399;50.754;3.366;2022-10-26T01:54:58;11.38;;;2.20;;
20480;SDS011;10399;50.754;3.366;2022-10-26T01:57:31;11.45;;;2.00;;
20480;SDS011;10399;50.754;3.366;2022-10-26T02:10:42;6.20;;;1.30;;
20480;SDS011;10399;50.754;3.366;2022-10-26T02:13:32;5.50;;;1.67;;
20480;SDS011;10399;50.754;3.366;2022-10-26T02:21:46;12.15;;;2.03;;
20480;SDS011;10399;50.754;3.366;2022-10-26T02:24:17;10.40;;;2.17;;
20480;SDS011;10399;50.754;3.366;2022-10-26T02:26:46;7.22;;;1.48;;
20480;SDS011;10399;50.754;3.366;2022-10-26T02:29:16;7.20;;;1.73;;
20480;SDS011;10399;50.754;3.366;2022-10-26T02:31:45;4.47;;;2.03;;
20480;SDS011;10399;50.754;3.366;2022-10-26T02:34:15;10.20;;;1.95;;
20480;SDS011;10399;50.754;3.366;2022-10-26T02:36:47;6.75;;;1.95;;
20480;SDS011;10399;50.754;3.366;2022-10-26T02:39:16;12.55;;;2.20;;
20480;SDS011;10399;50.754;3.366;2022-10-26T02:41:44;7.05;;;1.92;;
20480;SDS011;10399;50.754;3.366;2022-10-26T02:44:14;4.38;;;2.05;;
20480;SDS011;10399;50.754;3.366;2022-10-26T02:46:53;11.48;;;2.13;;
20480;SDS011;10399;50.754;3.366;2022-10-26T02:49:22;7.05;;;2.10;;
20480;SDS011;10399;50.754;3.366;2022-10-26T02:51:52;11.10;;;2.30;;
20480;SDS011;10399;50.754;3.366;2022-10-26T02:57:14;7.90;;;2.10;;
20480;SDS011;10399;50.754;3.366;2022-10-26T02:59:44;11.15;;;2.20;;
20480;SDS011;10399;50.754;3.366;2022-10-26T03:02:14;4.00;;;2.22;;
20480;SDS011;10399;50.754;3.366;2022-10-26T03:04:43;5.97;;;1.83;;
20480;SDS011;10399;50.754;3.366;2022-10-26T03:07:10;9.98;;;2.50;;
20480;SDS011;10399;50.754;3.366;2022-10-26T03:09:37;9.20;;;3.20;;
20480;SDS011;10399;50.754;3.366;2022-10-26T03:12:04;8.35;;;2.38;;
20480;SDS011;10399;50.754;3.366;2022-10-26T03:14:31;8.98;;;2.30;;
20480;SDS011;10399;50.754;3.366;2022-10-26T03:16:58;5.38;;;1.88;;
20480;SDS011;10399;50.754;3.366;2022-10-26T03:19:25;6.72;;;1.95;;
20480;SDS011;10399;50.754;3.366;2022-10-26T03:21:52;8.18;;;1.85;;
20480;SDS011;10399;50.754;3.366;2022-10-26T03:24:19;5.43;;;2.08;;
20480;SDS011;10399;50.754;3.366;2022-10-26T03:26:46;4.75;;;1.70;;
20480;SDS011;10399;50.754;3.366;2022-10-26T03:29:13;5.75;;;1.80;;
20480;SDS011;10399;50.754;3.366;2022-10-26T03:31:40;6.60;;;1.77;;
20480;SDS011;10399;50.754;3.366;2022-10-26T03:34:07;6.05;;;2.10;;
20480;SDS011;10399;50.754;3.366;2022-10-26T03:36:34;6.88;;;2.13;;
20480;SDS011;10399;50.754;3.366;2022-10-26T03:39:01;4.68;;;1.60;;
20480;SDS011;10399;50.754;3.366;2022-10-26T03:41:28;6.45;;;1.77;;
20480;SDS011;10399;50.754;3.366;2022-10-26T03:43:55;5.32;;;1.60;;
20480;SDS011;10399;50.754;3.366;2022-10-26T03:46:22;4.07;;;1.63;;
20480;SDS011;10399;50.754;3.366;2022-10-26T03:48:49;8.13;;;1.45;;
20480;SDS011;10399;50.754;3.366;2022-10-26T03:51:16;6.75;;;1.50;;
20480;SDS011;10399;50.754;3.366;2022-10-26T03:53:43;6.85;;;1.63;;
20480;SDS011;10399;50.754;3.366;2022-10-26T03:56:10;7.00;;;1.77;;
20480;SDS011;10399;50.754;3.366;2022-10-26T03:58:37;4.57;;;1.55;;
20480;SDS011;10399;50.754;3.366;2022-10-26T04:01:04;5.97;;;1.65;;
20480;SDS011;10399;50.754;3.366;2022-10-26T04:03:31;4.43;;;1.50;;
20480;SDS011;10399;50.754;3.366;2022-10-26T04:06:02;5.18;;;1.52;;
20480;SDS011;10399;50.754;3.366;2022-10-26T04:08:29;6.10;;;1.90;;
20480;SDS011;10399;50.754;3.366;2022-10-26T04:10:56;6.43;;;1.45;;
20480;SDS011;10399;50.754;3.366;2022-10-26T04:13:28;2.17;;;1.50;;
20480;SDS011;10399;50.754;3.366;2022-10-26T04:15:55;9.02;;;1.85;;
20480;SDS011;10399;50.754;3.366;2022-10-26T04:18:22;5.40;;;1.30;;
20480;SDS011;10399;50.754;3.366;2022-10-26T04:20:49;6.85;;;1.50;;
20480;SDS011;10399;50.754;3.366;2022-10-26T04:23:16;3.55;;;1.88;;
20480;SDS011;10399;50.754;3.366;2022-10-26T04:25:44;4.88;;;1.60;;
20480;SDS011;10399;50.754;3.366;2022-10-26T04:28:12;5.03;;;1.40;;
20480;SDS011;10399;50.754;3.366;2022-10-26T04:30:40;10.27;;;1.77;;
20480;SDS011;10399;50.754;3.366;2022-10-26T04:33:07;8.32;;;1.80;;
20480;SDS011;10399;50.754;3.366;2022-10-26T04:35:34;3.80;;;1.50;;
20480;SDS011;10399;50.754;3.366;2022-10-26T04:38:03;12.18;;;1.80;;
20480;SDS011;10399;50.754;3.366;2022-10-26T04:40:32;8.85;;;2.33;;
20480;SDS011;10399;50.754;3.366;2022-10-26T04:42:59;4.55;;;1.55;;
20480;SDS011;10399;50.754;3.366;2022-10-26T04:45:27;7.70;;;1.80;;
20480;SDS011;10399;50.754;3.366;2022-10-26T04:50:27;10.75;;;1.80;;
20480;SDS011;10399;50.754;3.366;2022-10-26T04:52:54;3.10;;;1.35;;
20480;SDS011;10399;50.754;3.366;2022-10-26T04:55:21;7.97;;;2.72;;
20480;SDS011;10399;50.754;3.366;2022-10-26T04:57:48;9.25;;;1.88;;
20480;SDS011;10399;50.754;3.366;2022-10-26T05:00:15;4.60;;;1.58;;
20480;SDS011;10399;50.754;3.366;2022-10-26T05:02:42;11.88;;;1.73;;
20480;SDS011;10399;50.754;3.366;2022-10-26T05:05:10;5.70;;;1.80;;
20480;SDS011;10399;50.754;3.366;2022-10-26T05:07:40;7.82;;;1.77;;
20480;SDS011;10399;50.754;3.366;2022-10-26T05:10:07;8.07;;;2.33;;
20480;SDS011;10399;50.754;3.366;2022-10-26T05:12:35;6.53;;;2.00;;
20480;SDS011;10399;50.754;3.366;2022-10-26T05:15:02;8.40;;;1.73;;
20480;SDS011;10399;50.754;3.366;2022-10-26T05:17:33;3.83;;;1.38;;
20480;SDS011;10399;50.754;3.366;2022-10-26T05:20:00;5.13;;;1.60;;
20480;SDS011;10399;50.754;3.366;2022-10-26T05:22:31;7.93;;;1.73;;
20480;SDS011;10399;50.754;3.366;2022-10-26T05:24:58;9.65;;;2.03;;
20480;SDS011;10399;50.754;3.366;2022-10-26T05:27:25;6.40;;;2.13;;
20480;SDS011;10399;50.754;3.366;2022-10-26T05:29:52;6.40;;;1.70;;
20480;SDS011;10399;50.754;3.366;2022-10-26T05:32:19;5.90;;;1.80;;
20480;SDS011;10399;50.754;3.366;2022-10-26T05:34:46;6.38;;;1.88;;
20480;SDS011;10399;50.754;3.366;2022-10-26T05:37:13;5.47;;;1.60;;
20480;SDS011;10399;50.754;3.366;2022-10-26T05:39:41;7.28;;;1.90;;
20480;SDS011;10399;50.754;3.366;2022-10-26T05:42:08;4.88;;;2.08;;
20480;SDS011;10399;50.754;3.366;2022-10-26T05:44:36;5.70;;;1.90;;
20480;SDS011;10399;50.754;3.366;2022-10-26T05:47:03;7.97;;;2.38;;
20480;SDS011;10399;50.754;3.366;2022-10-26T05:49:30;7.85;;;1.90;;
20480;SDS011;10399;50.754;3.366;2022-10-26T05:51:57;7.80;;;2.25;;
20480;SDS011;10399;50.754;3.366;2022-10-26T05:54:24;7.45;;;2.05;;
20480;SDS011;10399;50.754;3.366;2022-10-26T05:56:51;6.20;;;2.25;;
20480;SDS011;10399;50.754;3.366;2022-10-26T05:59:18;7.95;;;1.90;;
20480;SDS011;10399;50.754;3.366;2022-10-26T06:06:52;17.17;;;3.13;;
20480;SDS011;10399;50.754;3.366;2022-10-26T06:09:20;11.07;;;3.08;;
20480;SDS011;10399;50.754;3.366;2022-10-26T06:11:47;17.25;;;2.78;;
20480;SDS011;10399;50.754;3.366;2022-10-26T06:14:20;11.27;;;2.42;;
20480;SDS011;10399;50.754;3.366;2022-10-26T06:16:51;8.75;;;2.30;;
20480;SDS011;10399;50.754;3.366;2022-10-26T06:19:46;7.22;;;2.33;;
20480;SDS011;10399;50.754;3.366;2022-10-26T06:25:21;6.35;;;2.85;;
20480;SDS011;10399;50.754;3.366;2022-10-26T06:30:51;6.90;;;2.53;;
20480;SDS011;10399;50.754;3.366;2022-10-26T06:33:18;6.30;;;2.97;;
20480;SDS011;10399;50.754;3.366;2022-10-26T06:38:43;9.57;;;2.88;;
20480;SDS011;10399;50.754;3.366;2022-10-26T06:41:13;4.53;;;2.50;;
20480;SDS011;10399;50.754;3.366;2022-10-26T06:43:44;12.10;;;2.63;;
20480;SDS011;10399;50.754;3.366;2022-10-26T06:51:35;8.93;;;2.70;;
20480;SDS011;10399;50.754;3.366;2022-10-26T06:56:56;7.53;;;2.45;;
20480;SDS011;10399;50.754;3.366;2022-10-26T06:59:32;10.27;;;2.90;;
20480;SDS011;10399;50.754;3.366;2022-10-26T07:02:28;8.35;;;2.88;;
20480;SDS011;10399;50.754;3.366;2022-10-26T07:04:55;9.13;;;2.40;;
20480;SDS011;10399;50.754;3.366;2022-10-26T07:07:23;8.35;;;2.78;;
20480;SDS011;10399;50.754;3.366;2022-10-26T07:09:52;6.70;;;2.80;;
20480;SDS011;10399;50.754;3.366;2022-10-26T07:12:19;15.93;;;3.33;;
20480;SDS011;10399;50.754;3.366;2022-10-26T07:14:46;8.85;;;2.90;;
20480;SDS011;10399;50.754;3.366;2022-10-26T07:17:13;28.90;;;4.93;;
20480;SDS011;10399;50.754;3.366;2022-10-26T07:19:42;6.07;;;2.60;;
20480;SDS011;10399;50.754;3.366;2022-10-26T07:22:10;5.22;;;2.88;;
20480;SDS011;10399;50.754;3.366;2022-10-26T07:24:38;9.20;;;2.85;;
20480;SDS011;10399;50.754;3.366;2022-10-26T07:27:05;21.73;;;3.50;;
20480;SDS011;10399;50.754;3.366;2022-10-26T07:29:31;12.25;;;2.78;;
20480;SDS011;10399;50.754;3.366;2022-10-26T07:32:00;9.20;;;2.95;;
20480;SDS011;10399;50.754;3.366;2022-10-26T07:34:28;8.48;;;3.00;;
20480;SDS011;10399;50.754;3.366;2022-10-26T07:36:54;5.28;;;2.45;;
20480;SDS011;10399;50.754;3.366;2022-10-26T07:39:21;8.25;;;2.50;;
20480;SDS011;10399;50.754;3.366;2022-10-26T07:41:48;10.63;;;2.70;;
20480;SDS011;10399;50.754;3.366;2022-10-26T07:44:15;5.50;;;2.40;;
20480;SDS011;10399;50.754;3.366;2022-10-26T07:46:43;15.80;;;2.88;;
20480;SDS011;10399;50.754;3.366;2022-10-26T07:49:10;19.30;;;4.20;;
20480;SDS011;10399;50.754;3.366;2022-10-26T07:51:41;7.07;;;2.63;;
20480;SDS011;10399;50.754;3.366;2022-10-26T07:54:08;4.90;;;2.47;;
20480;SDS011;10399;50.754;3.366;2022-10-26T07:56:35;7.88;;;2.83;;
20480;SDS011;10399;50.754;3.366;2022-10-26T07:59:02;6.95;;;3.08;;
20480;SDS011;10399;50.754;3.366;2022-10-26T08:01:29;8.10;;;2.60;;
20480;SDS011;10399;50.754;3.366;2022-10-26T08:03:57;7.53;;;2.38;;
20480;SDS011;10399;50.754;3.366;2022-10-26T08:06:24;18.05;;;3.53;;
20480;SDS011;10399;50.754;3.366;2022-10-26T08:08:51;8.77;;;2.53;;
20480;SDS011;10399;50.754;3.366;2022-10-26T08:11:19;7.65;;;2.33;;
20480;SDS011;10399;50.754;3.366;2022-10-26T08:13:46;9.57;;;2.95;;
20480;SDS011;10399;50.754;3.366;2022-10-26T08:16:13;5.75;;;2.83;;
20480;SDS011;10399;50.754;3.366;2022-10-26T08:18:40;6.22;;;2.50;;
20480;SDS011;10399;50.754;3.366;2022-10-26T08:21:09;8.57;;;2.50;;
20480;SDS011;10399;50.754;3.366;2022-10-26T08:23:51;5.45;;;2.58;;
20480;SDS011;10399;50.754;3.366;2022-10-26T08:26:18;8.00;;;2.85;;
20480;SDS011;10399;50.754;3.366;2022-10-26T08:28:47;8.48;;;2.92;;
20480;SDS011;10399;50.754;3.366;2022-10-26T08:31:14;9.13;;;2.35;;
20480;SDS011;10399;50.754;3.366;2022-10-26T08:33:41;7.65;;;2.40;;
20480;SDS011;10399;50.754;3.366;2022-10-26T08:36:10;8.57;;;2.70;;
20480;SDS011;10399;50.754;3.366;2022-10-26T08:38:38;7.60;;;2.15;;
20480;SDS011;10399;50.754;3.366;2022-10-26T08:41:06;9.45;;;2.40;;
20480;SDS011;10399;50.754;3.366;2022-10-26T08:43:38;10.52;;;3.38;;
20480;SDS011;10399;50.754;3.366;2022-10-26T08:46:19;10.68;;;2.70;;
20480;SDS011;10399;50.754;3.366;2022-10-26T08:48:54;11.88;;;2.67;;
20480;SDS011;10399;50.754;3.366;2022-10-26T08:51:33;6.38;;;2.35;;
20480;SDS011;10399;50.754;3.366;2022-10-26T08:54:11;4.47;;;2.03;;
20480;SDS011;10399;50.754;3.366;2022-10-26T08:56:45;9.00;;;2.45;;
20480;SDS011;10399;50.754;3.366;2022-10-26T09:01:55;4.07;;;1.77;;
20480;SDS011;10399;50.754;3.366;2022-10-26T09:04:26;5.03;;;1.52;;
20480;SDS011;10399;50.754;3.366;2022-10-26T09:09:36;6.60;;;1.83;;
20480;SDS011;10399;50.754;3.366;2022-10-26T09:23:49;8.68;;;2.22;;
20480;SDS011;10399;50.754;3.366;2022-10-26T09:26:32;5.03;;;1.88;;
20480;SDS011;10399;50.754;3.366;2022-10-26T09:29:12;5.75;;;1.77;;
20480;SDS011;10399;50.754;3.366;2022-10-26T09:31:43;8.63;;;1.80;;
20480;SDS011;10399;50.754;3.366;2022-10-26T09:34:18;5.85;;;1.63;;
20480;SDS011;10399;50.754;3.366;2022-10-26T09:36:55;15.77;;;2.78;;
20480;SDS011;10399;50.754;3.366;2022-10-26T09:39:57;4.75;;;1.90;;
20480;SDS011;10399;50.754;3.366;2022-10-26T09:45:12;7.90;;;1.67;;
20480;SDS011;10399;50.754;3.366;2022-10-26T09:47:50;5.40;;;1.50;;
20480;SDS011;10399;50.754;3.366;2022-10-26T09:50:21;8.05;;;1.48;;
20480;SDS011;10399;50.754;3.366;2022-10-26T09:52:51;3.38;;;1.60;;
20480;SDS011;10399;50.754;3.366;2022-10-26T09:55:18;3.40;;;1.42;;
20480;SDS011;10399;50.754;3.366;2022-10-26T09:57:49;8.70;;;1.40;;
20480;SDS011;10399;50.754;3.366;2022-10-26T10:00:19;5.28;;;1.70;;
20480;SDS011;10399;50.754;3.366;2022-10-26T10:02:50;9.90;;;1.55;;
20480;SDS011;10399;50.754;3.366;2022-10-26T10:08:20;4.28;;;1.38;;
20480;SDS011;10399;50.754;3.366;2022-10-26T10:10:53;7.10;;;1.40;;
20480;SDS011;10399;50.754;3.366;2022-10-26T10:13:30;4.97;;;1.35;;
20480;SDS011;10399;50.754;3.366;2022-10-26T10:18:30;4.75;;;1.40;;
20480;SDS011;10399;50.754;3.366;2022-10-26T10:20:58;7.70;;;1.95;;
20480;SDS011;10399;50.754;3.366;2022-10-26T10:25:57;8.43;;;1.55;;
20480;SDS011;10399;50.754;3.366;2022-10-26T10:28:30;5.47;;;1.90;;
20480;SDS011;10399;50.754;3.366;2022-10-26T10:31:00;4.30;;;1.50;;
20480;SDS011;10399;50.754;3.366;2022-10-26T10:33:46;10.95;;;1.75;;
20480;SDS011;10399;50.754;3.366;2022-10-26T10:36:15;6.97;;;1.73;;
20480;SDS011;10399;50.754;3.366;2022-10-26T10:38:46;7.40;;;2.17;;
20480;SDS011;10399;50.754;3.366;2022-10-26T10:41:28;2.70;;;1.15;;
20480;SDS011;10399;50.754;3.366;2022-10-26T10:44:14;29.65;;;3.45;;
20480;SDS011;10399;50.754;3.366;2022-10-26T10:46:42;15.13;;;2.33;;
20480;SDS011;10399;50.754;3.366;2022-10-26T10:52:05;7.78;;;1.63;;
20480;SDS011;10399;50.754;3.366;2022-10-26T10:54:33;12.02;;;1.80;;
20480;SDS011;10399;50.754;3.366;2022-10-26T11:00:08;7.07;;;1.35;;
20480;SDS011;10399;50.754;3.366;2022-10-26T11:02:43;7.53;;;2.25;;
20480;SDS011;10399;50.754;3.366;2022-10-26T11:11:17;5.68;;;1.52;;
20480;SDS011;10399;50.754;3.366;2022-10-26T11:13:34;5.63;;;1.45;;
20480;SDS011;10399;50.754;3.366;2022-10-26T11:16:10;4.25;;;1.30;;
20480;SDS011;10399;50.754;3.366;2022-10-26T11:18:45;10.25;;;2.05;;
20480;SDS011;10399;50.754;3.366;2022-10-26T11:21:27;4.70;;;1.33;;
20480;SDS011;10399;50.754;3.366;2022-10-26T11:24:17;15.65;;;2.58;;
20480;SDS011;10399;50.754;3.366;2022-10-26T11:26:58;16.02;;;2.55;;
20480;SDS011;10399;50.754;3.366;2022-10-26T11:32:15;6.65;;;1.10;;
20480;SDS011;10399;50.754;3.366;2022-10-26T11:43:44;4.70;;;1.35;;
20480;SDS011;10399;50.754;3.366;2022-10-26T11:46:23;8.60;;;1.20;;
20480;SDS011;10399;50.754;3.366;2022-10-26T11:57:08;3.40;;;1.20;;
20480;SDS011;10399;50.754;3.366;2022-10-26T11:59:38;9.88;;;1.30;;
20480;SDS011;10399;50.754;3.366;2022-10-26T12:02:20;7.93;;;1.55;;
20480;SDS011;10399;50.754;3.366;2022-10-26T12:04:57;3.60;;;1.20;;
20480;SDS011;10399;50.754;3.366;2022-10-26T12:07:35;3.13;;;1.30;;
20480;SDS011;10399;50.754;3.366;2022-10-26T12:10:07;12.18;;;1.35;;
20480;SDS011;10399;50.754;3.366;2022-10-26T12:15:34;5.03;;;1.27;;
20480;SDS011;10399;50.754;3.366;2022-10-26T12:18:40;15.67;;;2.57;;
20480;SDS011;10399;50.754;3.366;2022-10-26T12:21:27;8.50;;;1.45;;
20480;SDS011;10399;50.754;3.366;2022-10-26T12:27:02;6.38;;;1.40;;
20480;SDS011;10399;50.754;3.366;2022-10-26T12:35:27;4.03;;;1.40;;
20480;SDS011;10399;50.754;3.366;2022-10-26T12:43:40;7.47;;;1.20;;
20480;SDS011;10399;50.754;3.366;2022-10-26T12:48:41;8.32;;;1.45;;
20480;SDS011;10399;50.754;3.366;2022-10-26T12:51:42;6.97;;;1.23;;
20480;SDS011;10399;50.754;3.366;2022-10-26T12:56:50;6.00;;;1.50;;
20480;SDS011;10399;50.754;3.366;2022-10-26T13:07:24;7.97;;;1.48;;
20480;SDS011;10399;50.754;3.366;2022-10-26T13:10:32;5.40;;;1.20;;
20480;SDS011;10399;50.754;3.366;2022-10-26T13:12:52;5.07;;;1.50;;
20480;SDS011;10399;50.754;3.366;2022-10-26T13:15:27;5.78;;;1.38;;
20480;SDS011;10399;50.754;3.366;2022-10-26T13:20:33;10.13;;;1.45;;
20480;SDS011;10399;50.754;3.366;2022-10-26T13:23:12;6.05;;;1.27;;
20480;SDS011;10399;50.754;3.366;2022-10-26T13:31:52;5.35;;;1.52;;
20480;SDS011;10399;50.754;3.366;2022-10-26T13:39:42;3.67;;;1.23;;
20480;SDS011;10399;50.754;3.366;2022-10-26T13:42:15;5.03;;;1.00;;
20480;SDS011;10399;50.754;3.366;2022-10-26T13:44:59;5.43;;;1.00;;
20480;SDS011;10399;50.754;3.366;2022-10-26T13:47:47;9.88;;;1.45;;
20480;SDS011;10399;50.754;3.366;2022-10-26T13:50:47;5.65;;;1.13;;
20480;SDS011;10399;50.754;3.366;2022-10-26T13:53:19;9.52;;;1.63;;
20480;SDS011;10399;50.754;3.366;2022-10-26T13:55:52;5.45;;;1.10;;
20480;SDS011;10399;50.754;3.366;2022-10-26T13:58:27;6.28;;;1.30;;
20480;SDS011;10399;50.754;3.366;2022-10-26T14:03:39;4.57;;;1.25;;
20480;SDS011;10399;50.754;3.366;2022-10-26T14:08:44;4.22;;;1.08;;
20480;SDS011;10399;50.754;3.366;2022-10-26T14:11:16;6.10;;;1.40;;
20480;SDS011;10399;50.754;3.366;2022-10-26T14:13:47;6.93;;;1.10;;
20480;SDS011;10399;50.754;3.366;2022-10-26T14:16:16;3.15;;;0.93;;
20480;SDS011;10399;50.754;3.366;2022-10-26T14:18:46;5.10;;;1.20;;
20480;SDS011;10399;50.754;3.366;2022-10-26T14:21:18;4.78;;;1.25;;
20480;SDS011;10399;50.754;3.366;2022-10-26T14:23:48;6.18;;;1.40;;
20480;SDS011;10399;50.754;3.366;2022-10-26T14:26:38;7.28;;;1.38;;
20480;SDS011;10399;50.754;3.366;2022-10-26T14:29:13;8.85;;;1.67;;
20480;SDS011;10399;50.754;3.366;2022-10-26T14:31:44;4.35;;;1.15;;
20480;SDS011;10399;50.754;3.366;2022-10-26T14:34:11;6.47;;;1.40;;
20480;SDS011;10399;50.754;3.366;2022-10-26T14:36:40;9.27;;;1.88;;
20480;SDS011;10399;50.754;3.366;2022-10-26T14:41:47;9.32;;;2.25;;
20480;SDS011;10399;50.754;3.366;2022-10-26T14:44:17;7.45;;;2.13;;
20480;SDS011;10399;50.754;3.366;2022-10-26T14:46:46;6.55;;;1.60;;
20480;SDS011;10399;50.754;3.366;2022-10-26T14:49:24;9.50;;;1.65;;
20480;SDS011;10399;50.754;3.366;2022-10-26T14:51:57;5.45;;;1.67;;
20480;SDS011;10399;50.754;3.366;2022-10-26T14:54:26;5.85;;;2.00;;
20480;SDS011;10399;50.754;3.366;2022-10-26T14:56:54;7.88;;;1.55;;
20480;SDS011;10399;50.754;3.366;2022-10-26T14:59:31;6.53;;;1.92;;
20480;SDS011;10399;50.754;3.366;2022-10-26T15:04:38;7.35;;;1.70;;
20480;SDS011;10399;50.754;3.366;2022-10-26T15:15:09;8.13;;;2.40;;
20480;SDS011;10399;50.754;3.366;2022-10-26T15:17:40;9.20;;;2.40;;
20480;SDS011;10399;50.754;3.366;2022-10-26T15:20:19;6.60;;;1.83;;
20480;SDS011;10399;50.754;3.366;2022-10-26T15:22:55;6.10;;;1.85;;
20480;SDS011;10399;50.754;3.366;2022-10-26T15:25:24;8.20;;;1.80;;
20480;SDS011;10399;50.754;3.366;2022-10-26T15:27:54;12.15;;;2.00;;
20480;SDS011;10399;50.754;3.366;2022-10-26T15:30:34;9.95;;;1.50;;
20480;SDS011;10399;50.754;3.366;2022-10-26T15:33:09;8.32;;;2.17;;
20480;SDS011;10399;50.754;3.366;2022-10-26T15:35:47;8.32;;;1.80;;
20480;SDS011;10399;50.754;3.366;2022-10-26T15:38:14;7.53;;;1.58;;
20480;SDS011;10399;50.754;3.366;2022-10-26T15:40:41;4.40;;;1.40;;
20480;SDS011;10399;50.754;3.366;2022-10-26T15:43:09;7.55;;;2.25;;
20480;SDS011;10399;50.754;3.366;2022-10-26T15:45:44;6.30;;;1.77;;
20480;SDS011;10399;50.754;3.366;2022-10-26T15:48:22;7.15;;;1.58;;
20480;SDS011;10399;50.754;3.366;2022-10-26T15:50:54;7.60;;;2.40;;
20480;SDS011;10399;50.754;3.366;2022-10-26T15:53:22;7.82;;;1.40;;
20480;SDS011;10399;50.754;3.366;2022-10-26T15:55:53;8.32;;;1.65;;
20480;SDS011;10399;50.754;3.366;2022-10-26T15:58:22;11.63;;;1.80;;
20480;SDS011;10399;50.754;3.366;2022-10-26T16:00:49;8.77;;;1.65;;
20480;SDS011;10399;50.754;3.366;2022-10-26T16:03:23;6.40;;;1.23;;
20480;SDS011;10399;50.754;3.366;2022-10-26T16:05:56;8.27;;;1.40;;
20480;SDS011;10399;50.754;3.366;2022-10-26T16:08:25;7.90;;;1.55;;
20480;SDS011;10399;50.754;3.366;2022-10-26T16:10:54;5.38;;;1.30;;
20480;SDS011;10399;50.754;3.366;2022-10-26T16:13:22;6.32;;;1.70;;
20480;SDS011;10399;50.754;3.366;2022-10-26T16:15:49;4.78;;;2.10;;
20480;SDS011;10399;50.754;3.366;2022-10-26T16:18:19;8.10;;;2.95;;
20480;SDS011;10399;50.754;3.366;2022-10-26T16:20:47;5.88;;;2.55;;
20480;SDS011;10399;50.754;3.366;2022-10-26T16:23:14;4.30;;;1.60;;
20480;SDS011;10399;50.754;3.366;2022-10-26T16:25:43;7.13;;;1.88;;
20480;SDS011;10399;50.754;3.366;2022-10-26T16:28:12;5.00;;;1.30;;
20480;SDS011;10399;50.754;3.366;2022-10-26T16:30:41;6.18;;;1.15;;
20480;SDS011;10399;50.754;3.366;2022-10-26T16:33:08;6.35;;;1.60;;
20480;SDS011;10399;50.754;3.366;2022-10-26T16:35:35;3.78;;;1.38;;
20480;SDS011;10399;50.754;3.366;2022-10-26T16:38:03;10.45;;;2.53;;
20480;SDS011;10399;50.754;3.366;2022-10-26T16:40:31;7.15;;;2.40;;
20480;SDS011;10399;50.754;3.366;2022-10-26T16:42:58;11.13;;;2.10;;
20480;SDS011;10399;50.754;3.366;2022-10-26T16:45:25;8.65;;;2.40;;
20480;SDS011;10399;50.754;3.366;2022-10-26T16:47:52;5.20;;;1.60;;
20480;SDS011;10399;50.754;3.366;2022-10-26T16:50:19;7.53;;;2.22;;
20480;SDS011;10399;50.754;3.366;2022-10-26T16:52:47;7.25;;;1.95;;
20480;SDS011;10399;50.754;3.366;2022-10-26T16:55:14;9.60;;;1.83;;
20480;SDS011;10399;50.754;3.366;2022-10-26T16:57:42;19.23;;;1.92;;
20480;SDS011;10399;50.754;3.366;2022-10-26T17:00:09;6.13;;;1.98;;
20480;SDS011;10399;50.754;3.366;2022-10-26T17:02:37;7.65;;;1.80;;
20480;SDS011;10399;50.754;3.366;2022-10-26T17:05:06;8.00;;;1.90;;
20480;SDS011;10399;50.754;3.366;2022-10-26T17:07:34;7.68;;;2.13;;
20480;SDS011;10399;50.754;3.366;2022-10-26T17:10:02;11.05;;;2.90;;
20480;SDS011;10399;50.754;3.366;2022-10-26T17:12:29;8.27;;;2.42;;
20480;SDS011;10399;50.754;3.366;2022-10-26T17:14:57;8.43;;;2.40;;
20480;SDS011;10399;50.754;3.366;2022-10-26T17:17:26;11.35;;;2.22;;
20480;SDS011;10399;50.754;3.366;2022-10-26T17:19:53;8.05;;;1.80;;
20480;SDS011;10399;50.754;3.366;2022-10-26T17:22:20;7.07;;;1.73;;
20480;SDS011;10399;50.754;3.366;2022-10-26T17:24:47;6.82;;;1.80;;
20480;SDS011;10399;50.754;3.366;2022-10-26T17:27:14;10.77;;;2.70;;
20480;SDS011;10399;50.754;3.366;2022-10-26T17:29:42;11.63;;;2.55;;
20480;SDS011;10399;50.754;3.366;2022-10-26T17:32:09;7.75;;;1.88;;
20480;SDS011;10399;50.754;3.366;2022-10-26T17:34:36;6.15;;;2.08;;
20480;SDS011;10399;50.754;3.366;2022-10-26T17:37:03;5.05;;;2.00;;
20480;SDS011;10399;50.754;3.366;2022-10-26T17:39:31;9.82;;;3.28;;
20480;SDS011;10399;50.754;3.366;2022-10-26T17:41:58;9.32;;;2.80;;
20480;SDS011;10399;50.754;3.366;2022-10-26T17:44:25;5.07;;;1.92;;
20480;SDS011;10399;50.754;3.366;2022-10-26T17:46:52;7.15;;;2.03;;
20480;SDS011;10399;50.754;3.366;2022-10-26T17:49:19;6.05;;;1.65;;
20480;SDS011;10399;50.754;3.366;2022-10-26T17:51:52;7.90;;;1.95;;
20480;SDS011;10399;50.754;3.366;2022-10-26T17:54:19;8.27;;;2.60;;
20480;SDS011;10399;50.754;3.366;2022-10-26T17:56:46;6.25;;;2.13;;
20480;SDS011;10399;50.754;3.366;2022-10-26T17:59:13;8.15;;;2.28;;
20480;SDS011;10399;50.754;3.366;2022-10-26T18:01:41;9.25;;;2.67;;
20480;SDS011;10399;50.754;3.366;2022-10-26T18:04:09;10.60;;;2.75;;
20480;SDS011;10399;50.754;3.366;2022-10-26T18:06:37;8.15;;;3.15;;
20480;SDS011;10399;50.754;3.366;2022-10-26T18:09:04;16.90;;;4.05;;